createdAt,value
2022-12-01T00:01:02.768Z,58201.00
2022-12-01T00:03:32.600Z,58221.72
2022-12-01T00:06:00.373Z,58217.56
2022-12-01T00:08:27.560Z,58252.75
2022-12-01T00:10:53.988Z,58207.22
2022-12-01T00:13:20.452Z,58258.97
2022-12-01T00:15:46.860Z,58192.72
2022-12-01T00:18:13.239Z,58172.03
2022-12-01T00:20:40.327Z,58217.56
2022-12-01T00:23:06.825Z,58184.47
2022-12-01T00:25:33.196Z,58213.44
2022-12-01T00:27:59.607Z,58196.88
2022-12-01T00:30:26.183Z,58149.28
2022-12-01T00:32:52.607Z,58223.78
2022-12-01T00:35:19.007Z,58223.78
2022-12-01T00:37:45.428Z,58221.72
2022-12-01T00:40:12.283Z,58192.72
2022-12-01T00:42:38.719Z,58169.97
2022-12-01T00:45:05.781Z,58176.19
2022-12-01T00:47:32.310Z,58163.75
2022-12-01T00:49:58.700Z,58172.03
2022-12-01T00:52:25.127Z,58230.00
2022-12-01T00:54:51.520Z,58217.56
2022-12-01T00:57:17.912Z,58155.47
2022-12-01T00:59:44.360Z,58161.69
2022-12-01T01:02:10.958Z,58205.16
2022-12-01T01:04:37.522Z,58180.31
2022-12-01T01:07:03.971Z,58217.56
2022-12-01T01:09:31.541Z,58209.28
2022-12-01T01:11:57.951Z,58196.88
2022-12-01T01:14:24.541Z,58184.47
2022-12-01T01:16:51.104Z,58203.09
2022-12-01T01:19:17.704Z,58176.19
2022-12-01T01:21:44.077Z,58236.19
2022-12-01T01:24:10.679Z,58157.56
2022-12-01T01:26:37.775Z,58188.59
2022-12-01T01:29:07.496Z,58215.50
2022-12-01T01:31:34.922Z,58246.56
2022-12-01T01:34:01.340Z,58163.75
2022-12-01T01:36:28.007Z,58240.34
2022-12-01T01:38:55.147Z,58203.09
2022-12-01T01:41:22.233Z,58236.19
2022-12-01T01:43:51.729Z,58211.38
2022-12-01T01:46:23.989Z,58234.13
2022-12-01T01:49:03.759Z,58232.06
2022-12-01T01:51:42.405Z,58310.72
2022-12-01T01:54:15.574Z,58178.25
2022-12-01T01:56:43.760Z,58265.19
2022-12-01T01:59:11.694Z,58198.94
2022-12-01T02:01:38.330Z,58381.09
2022-12-01T02:04:04.944Z,58232.06
2022-12-01T02:06:31.307Z,58221.72
2022-12-01T02:08:57.700Z,58227.94
2022-12-01T02:11:51.015Z,58207.22
2022-12-01T02:14:25.028Z,58225.84
2022-12-01T02:17:10.920Z,58240.34
2022-12-01T02:19:43.383Z,58188.59
2022-12-01T02:22:28.073Z,58165.81
2022-12-01T02:25:03.855Z,58213.44
2022-12-01T02:27:58.291Z,58236.19
2022-12-01T02:30:40.345Z,58163.75
2022-12-01T02:33:16.669Z,58217.56
2022-12-01T02:35:50.336Z,58201.00
2022-12-01T02:38:40.965Z,58203.09
2022-12-01T02:41:33.719Z,58184.47
2022-12-01T02:44:11.060Z,58159.63
2022-12-01T02:46:50.767Z,58258.97
2022-12-01T02:49:21.307Z,58147.19
2022-12-01T02:51:48.640Z,58163.75
2022-12-01T02:54:15.703Z,58176.19
2022-12-01T02:56:44.448Z,58178.25
2022-12-01T02:59:12.518Z,58174.09
2022-12-01T03:02:12.686Z,58172.03
2022-12-01T03:04:44.327Z,58157.56
2022-12-01T03:07:11.042Z,58180.31
2022-12-01T03:09:47.679Z,58180.31
2022-12-01T03:12:21.342Z,58188.59
2022-12-01T03:15:08.152Z,58225.84
2022-12-01T03:17:40.519Z,58147.19
2022-12-01T03:20:13.191Z,58174.09
2022-12-01T03:22:44.718Z,58149.28
2022-12-01T03:25:12.578Z,58209.28
2022-12-01T03:27:47.162Z,58157.56
2022-12-01T03:30:22.043Z,58147.19
2022-12-01T03:32:51.631Z,58196.88
2022-12-01T03:35:37.935Z,58184.47
2022-12-01T03:38:18.829Z,58182.38
2022-12-01T03:40:48.201Z,58209.28
2022-12-01T03:43:19.780Z,58219.66
2022-12-01T03:46:09.944Z,58165.81
2022-12-01T03:48:37.995Z,58180.31
2022-12-01T03:51:18.255Z,58172.03
2022-12-01T03:54:22.499Z,58196.88
2022-12-01T03:56:53.573Z,58176.19
2022-12-01T03:59:20.105Z,58215.50
2022-12-01T04:01:47.040Z,58172.03
2022-12-01T04:04:14.560Z,58196.88
2022-12-01T04:06:43.546Z,58180.31
2022-12-01T04:09:10.014Z,58474.25
2022-12-01T04:11:55.063Z,58182.38
2022-12-01T04:14:21.882Z,58143.06
2022-12-01T04:16:48.637Z,58147.19
2022-12-01T04:19:15.020Z,58172.03
2022-12-01T04:21:41.448Z,58379.03
2022-12-01T04:24:08.071Z,58213.44
2022-12-01T04:26:36.358Z,58201.00
2022-12-01T04:29:05.855Z,58184.47
2022-12-01T04:31:32.336Z,58161.69
2022-12-01T04:33:59.429Z,58182.38
2022-12-01T04:36:26.644Z,58143.06
2022-12-01T04:38:53.056Z,58176.19
2022-12-01T04:41:19.492Z,58149.28
2022-12-01T04:43:45.888Z,58186.53
2022-12-01T04:46:12.553Z,58225.84
2022-12-01T04:48:39.157Z,58136.84
2022-12-01T04:51:07.248Z,58246.56
2022-12-01T04:53:34.064Z,58169.97
2022-12-01T04:56:01.116Z,58201.00
2022-12-01T04:58:28.603Z,58528.06
2022-12-01T05:00:55.151Z,58143.06
2022-12-01T05:03:21.639Z,58188.59
2022-12-01T05:05:48.075Z,58138.91
2022-12-01T05:08:14.504Z,58223.78
2022-12-01T05:10:40.899Z,58180.31
2022-12-01T05:13:07.385Z,58109.94
2022-12-01T05:15:33.771Z,58178.25
2022-12-01T05:18:00.805Z,58120.28
2022-12-01T05:20:45.770Z,58196.88
2022-12-01T05:23:16.485Z,58097.53
2022-12-01T05:25:43.501Z,58105.81
2022-12-01T05:28:10.231Z,58159.63
2022-12-01T05:30:36.631Z,58147.19
2022-12-01T05:33:03.390Z,58118.22
2022-12-01T05:35:29.809Z,58153.41
2022-12-01T05:37:56.243Z,58118.22
2022-12-01T05:40:22.675Z,58130.63
2022-12-01T05:42:49.143Z,58107.88
2022-12-01T05:45:15.616Z,58151.34
2022-12-01T05:47:42.036Z,58126.50
2022-12-01T05:50:08.903Z,58128.56
2022-12-01T05:52:35.798Z,58118.22
2022-12-01T05:55:03.820Z,58080.97
2022-12-01T05:57:31.430Z,58105.81
2022-12-01T05:59:57.869Z,58163.75
2022-12-01T06:02:26.692Z,58155.47
2022-12-01T06:04:53.611Z,58149.28
2022-12-01T06:07:21.019Z,58165.81
2022-12-01T06:09:47.808Z,58147.19
2022-12-01T06:12:14.659Z,58167.91
2022-12-01T06:14:41.410Z,58169.97
2022-12-01T06:17:07.795Z,58149.28
2022-12-01T06:19:36.751Z,58124.44
2022-12-01T06:22:03.825Z,58180.31
2022-12-01T06:24:30.189Z,58151.34
2022-12-01T06:26:56.618Z,58147.19
2022-12-01T06:29:23.034Z,58165.81
2022-12-01T06:31:49.647Z,58163.75
2022-12-01T06:34:16.259Z,58143.06
2022-12-01T06:36:42.629Z,58192.72
2022-12-01T06:39:10.030Z,58130.63
2022-12-01T06:41:39.865Z,58192.72
2022-12-01T06:44:06.423Z,58165.81
2022-12-01T06:46:32.938Z,58072.69
2022-12-01T06:48:59.431Z,58163.75
2022-12-01T06:51:25.824Z,58118.22
2022-12-01T06:53:57.722Z,58163.75
2022-12-01T06:56:27.385Z,58215.50
2022-12-01T06:58:54.009Z,58178.25
2022-12-01T07:01:21.204Z,58138.91
2022-12-01T07:03:51.176Z,58165.81
2022-12-01T07:06:18.024Z,58176.19
2022-12-01T07:08:44.860Z,58201.00
2022-12-01T07:11:13.695Z,58163.75
2022-12-01T07:13:40.898Z,58169.97
2022-12-01T07:16:08.259Z,58194.81
2022-12-01T07:18:35.701Z,58101.66
2022-12-01T07:21:04.271Z,58174.09
2022-12-01T07:23:30.805Z,58188.59
2022-12-01T07:26:01.505Z,58188.59
2022-12-01T07:28:28.583Z,58138.91
2022-12-01T07:31:04.099Z,58120.28
2022-12-01T07:33:30.799Z,58190.66
2022-12-01T07:35:57.376Z,58130.63
2022-12-01T07:38:23.818Z,58128.56
2022-12-01T07:40:50.292Z,58434.91
2022-12-01T07:43:16.677Z,58350.06
2022-12-01T07:45:43.153Z,58155.47
2022-12-01T07:48:09.611Z,58147.19
2022-12-01T07:50:36.000Z,58159.63
2022-12-01T07:53:02.426Z,58130.63
2022-12-01T07:55:28.825Z,58184.47
2022-12-01T07:57:55.213Z,58126.50
2022-12-01T08:00:21.794Z,58147.19
2022-12-01T08:02:49.265Z,58151.34
2022-12-01T08:05:15.731Z,58143.06
2022-12-01T08:07:42.261Z,58352.13
2022-12-01T08:10:08.948Z,58184.47
2022-12-01T08:12:35.334Z,58192.72
2022-12-01T08:15:02.674Z,58180.31
2022-12-01T08:17:29.047Z,58134.78
2022-12-01T08:19:55.448Z,58118.22
2022-12-01T08:22:21.843Z,58157.56
2022-12-01T08:24:48.232Z,58155.47
2022-12-01T08:27:14.602Z,58196.88
2022-12-01T08:29:41.038Z,58126.50
2022-12-01T08:32:07.443Z,58194.81
2022-12-01T08:34:37.241Z,58408.00
2022-12-01T08:37:03.676Z,58163.75
2022-12-01T08:39:30.040Z,58155.47
2022-12-01T08:41:56.425Z,58232.06
2022-12-01T08:44:22.860Z,58093.38
2022-12-01T08:46:49.747Z,58169.97
2022-12-01T08:49:16.320Z,58184.47
2022-12-01T08:51:42.913Z,58186.53
2022-12-01T08:54:11.017Z,58180.31
2022-12-01T08:56:40.431Z,58172.03
2022-12-01T08:59:07.068Z,58180.31
2022-12-01T09:01:33.839Z,58180.31
2022-12-01T09:04:10.138Z,58149.28
2022-12-01T09:06:45.215Z,58217.56
2022-12-01T09:09:19.705Z,58172.03
2022-12-01T09:11:46.932Z,58205.16
2022-12-01T09:14:14.547Z,58205.16
2022-12-01T09:16:42.110Z,58190.66
2022-12-01T09:19:08.711Z,58159.63
2022-12-01T09:21:38.985Z,58374.88
2022-12-01T09:24:06.819Z,58188.59
2022-12-01T09:26:33.756Z,58319.00
2022-12-01T09:29:03.470Z,58201.00
2022-12-01T09:31:30.302Z,58194.81
2022-12-01T09:33:59.154Z,58155.47
2022-12-01T09:36:26.266Z,58190.66
2022-12-01T09:38:52.968Z,58184.47
2022-12-01T09:41:23.756Z,58248.63
2022-12-01T09:44:05.885Z,58232.06
2022-12-01T09:46:38.017Z,58180.31
2022-12-01T09:49:06.813Z,58157.56
2022-12-01T09:51:36.022Z,58192.72
2022-12-01T09:54:03.009Z,58099.59
2022-12-01T09:56:34.121Z,58180.31
2022-12-01T09:59:02.815Z,58205.16
2022-12-01T10:01:35.619Z,58217.56
2022-12-01T10:04:16.580Z,58141.00
2022-12-01T10:07:08.416Z,58201.00
2022-12-01T10:09:52.450Z,58217.56
2022-12-01T10:12:22.550Z,58290.03
2022-12-01T10:14:48.982Z,58161.69
2022-12-01T10:17:27.635Z,58188.59
2022-12-01T10:20:06.599Z,58167.91
2022-12-01T10:23:01.718Z,58217.56
2022-12-01T10:25:34.638Z,58163.75
2022-12-01T10:28:33.259Z,58138.91
2022-12-01T10:31:09.708Z,58205.16
2022-12-01T10:33:44.086Z,58190.66
2022-12-01T10:36:10.637Z,58172.03
2022-12-01T10:38:38.416Z,58153.41
2022-12-01T10:41:06.760Z,58161.69
2022-12-01T10:43:37.674Z,58101.66
2022-12-01T10:46:20.263Z,58192.72
2022-12-01T10:48:59.164Z,58236.19
2022-12-01T10:51:27.855Z,58126.50
2022-12-01T10:53:59.039Z,58184.47
2022-12-01T10:56:25.647Z,58174.09
2022-12-01T10:58:54.470Z,58159.63
2022-12-01T11:01:26.546Z,58184.47
2022-12-01T11:04:25.331Z,58163.75
2022-12-01T11:06:51.772Z,58141.00
2022-12-01T11:09:29.280Z,58188.59
2022-12-01T11:12:00.744Z,58122.38
2022-12-01T11:14:37.094Z,58165.81
2022-12-01T11:17:37.306Z,58153.41
2022-12-01T11:20:30.503Z,58174.09
2022-12-01T11:23:20.994Z,58205.16
2022-12-01T11:26:01.683Z,58167.91
2022-12-01T11:28:28.237Z,58114.09
2022-12-01T11:31:00.308Z,58134.78
2022-12-01T11:33:27.028Z,58161.69
2022-12-01T11:35:53.672Z,58157.56
2022-12-01T11:38:30.393Z,58414.22
2022-12-01T11:40:57.759Z,58149.28
2022-12-01T11:43:30.260Z,58149.28
2022-12-01T11:45:58.765Z,58172.03
2022-12-01T11:48:27.517Z,58118.22
2022-12-01T11:51:06.272Z,58155.47
2022-12-01T11:53:36.712Z,58242.41
2022-12-01T11:56:23.702Z,58138.91
2022-12-01T11:58:54.764Z,58196.88
2022-12-01T12:01:25.521Z,58205.16
2022-12-01T12:04:04.036Z,58211.38
2022-12-01T12:06:41.263Z,58159.63
2022-12-01T12:09:10.707Z,58258.97
2022-12-01T12:11:37.039Z,58161.69
2022-12-01T12:14:26.587Z,58186.53
2022-12-01T12:17:16.610Z,58192.72
2022-12-01T12:20:08.877Z,58209.28
2022-12-01T12:23:11.179Z,58176.19
2022-12-01T12:26:01.794Z,58207.22
2022-12-01T12:28:37.173Z,58167.91
2022-12-01T12:31:29.589Z,58178.25
2022-12-01T12:34:19.089Z,58207.22
2022-12-01T12:37:19.348Z,58207.22
2022-12-01T12:39:52.073Z,58232.06
2022-12-01T12:42:57.248Z,58188.59
2022-12-01T12:45:37.984Z,58194.81
2022-12-01T12:48:57.352Z,58238.28
2022-12-01T12:51:39.458Z,58269.31
2022-12-01T12:54:12.056Z,58184.47
2022-12-01T12:56:41.123Z,58192.72
2022-12-01T12:59:11.772Z,58252.75
2022-12-01T13:01:55.529Z,58209.28
2022-12-01T13:04:25.920Z,58172.03
2022-12-01T13:06:58.400Z,58124.44
2022-12-01T13:09:46.878Z,58211.38
2022-12-01T13:12:19.334Z,58151.34
2022-12-01T13:14:49.860Z,58080.97
2022-12-01T13:17:20.137Z,58118.22
2022-12-01T13:19:48.213Z,58201.00
2022-12-01T13:22:17.057Z,58132.72
2022-12-01T13:24:43.820Z,58203.09
2022-12-01T13:27:10.180Z,58174.09
2022-12-01T13:29:45.687Z,58381.09
2022-12-01T13:32:26.270Z,58209.28
2022-12-01T13:34:52.912Z,58192.72
2022-12-01T13:37:36.210Z,58242.41
2022-12-01T13:40:23.728Z,58418.34
2022-12-01T13:43:10.378Z,58153.41
2022-12-01T13:45:38.781Z,58172.03
2022-12-01T13:48:26.487Z,58151.34
2022-12-01T13:50:52.787Z,58161.69
2022-12-01T13:53:19.082Z,58124.44
2022-12-01T13:56:05.969Z,58136.84
2022-12-01T13:58:32.602Z,58165.81
2022-12-01T14:01:22.293Z,58201.00
2022-12-01T14:03:51.808Z,58209.28
2022-12-01T14:06:26.534Z,58161.69
2022-12-01T14:08:58.054Z,58138.91
2022-12-01T14:11:28.889Z,58176.19
2022-12-01T14:13:58.753Z,58399.72
2022-12-01T14:16:25.759Z,58147.19
2022-12-01T14:18:55.675Z,58343.84
2022-12-01T14:21:57.801Z,58176.19
2022-12-01T14:24:33.786Z,58176.19
2022-12-01T14:27:00.174Z,58136.84
2022-12-01T14:29:42.982Z,58190.66
2022-12-01T14:32:09.292Z,58163.75
2022-12-01T14:34:37.213Z,58505.31
2022-12-01T14:37:07.796Z,58188.59
2022-12-01T14:39:36.459Z,58143.06
2022-12-01T14:42:58.150Z,58157.56
2022-12-01T14:45:29.170Z,58180.31
2022-12-01T14:48:02.529Z,58155.47
2022-12-01T14:50:37.773Z,58143.06
2022-12-01T14:53:22.264Z,58132.72
2022-12-01T14:56:01.666Z,58126.50
2022-12-01T14:58:30.687Z,58132.72
2022-12-01T15:01:09.366Z,58155.47
2022-12-01T15:03:44.112Z,58103.72
2022-12-01T15:06:19.505Z,58149.28
2022-12-01T15:09:03.947Z,58445.28
2022-12-01T15:11:33.127Z,58211.38
2022-12-01T15:13:59.566Z,58128.56
2022-12-01T15:16:29.420Z,58118.22
2022-12-01T15:18:56.042Z,58141.00
2022-12-01T15:21:29.901Z,58153.41
2022-12-01T15:24:03.825Z,58103.72
2022-12-01T15:26:46.659Z,58138.91
2022-12-01T15:29:22.479Z,58120.28
2022-12-01T15:31:53.555Z,58163.75
2022-12-01T15:34:41.400Z,58109.94
2022-12-01T15:37:11.623Z,58126.50
2022-12-01T15:43:15.998Z,58091.31
2022-12-01T15:46:01.173Z,58083.03
2022-12-01T15:48:34.163Z,58151.34
2022-12-01T15:51:11.132Z,58078.91
2022-12-01T15:53:42.597Z,58277.59
2022-12-01T15:56:10.477Z,58087.19
2022-12-01T15:58:42.611Z,58062.34
2022-12-01T16:01:12.660Z,58060.25
2022-12-01T16:03:52.908Z,58052.00
2022-12-01T16:06:20.187Z,58039.56
2022-12-01T16:09:05.091Z,58074.75
2022-12-01T16:11:32.393Z,58076.81
2022-12-01T16:14:18.429Z,58070.63
2022-12-01T16:16:52.952Z,58114.09
2022-12-01T16:19:23.504Z,58016.81
2022-12-01T16:21:56.788Z,58045.78
2022-12-01T16:24:28.020Z,58097.53
2022-12-01T16:26:55.814Z,58049.91
2022-12-01T16:29:23.941Z,58039.56
2022-12-01T16:32:19.979Z,58035.44
2022-12-01T16:34:56.947Z,58043.72
2022-12-01T16:37:23.699Z,58078.91
2022-12-01T16:39:50.520Z,58068.53
2022-12-01T16:42:20.946Z,58039.56
2022-12-01T16:44:48.527Z,58047.84
2022-12-01T16:47:25.432Z,58060.25
2022-12-01T16:49:52.451Z,58060.25
2022-12-01T16:52:43.526Z,58023.00
2022-12-01T16:55:27.397Z,58041.63
2022-12-01T16:57:55.239Z,58271.41
2022-12-01T17:00:22.675Z,58006.44
2022-12-01T17:02:49.252Z,58037.50
2022-12-01T17:05:15.766Z,58041.63
2022-12-01T17:07:42.217Z,58068.53
2022-12-01T17:10:09.045Z,58074.75
2022-12-01T17:12:35.428Z,58107.88
2022-12-01T17:15:02.715Z,58035.44
2022-12-01T17:17:29.677Z,58068.53
2022-12-01T17:19:56.144Z,58076.81
2022-12-01T17:22:22.618Z,58074.75
2022-12-01T17:24:49.752Z,58039.56
2022-12-01T17:27:16.445Z,58025.09
2022-12-01T17:29:46.286Z,58023.00
2022-12-01T17:32:13.834Z,57981.63
2022-12-01T17:34:40.416Z,58031.28
2022-12-01T17:37:07.082Z,58033.34
2022-12-01T17:39:33.627Z,58031.28
2022-12-01T17:42:00.182Z,57987.81
2022-12-01T17:44:26.585Z,57977.47
2022-12-01T17:46:53.045Z,57946.44
2022-12-01T17:49:19.531Z,58039.56
2022-12-01T17:51:45.977Z,58047.84
2022-12-01T17:54:12.567Z,58033.34
2022-12-01T17:56:39.092Z,58025.09
2022-12-01T17:59:05.655Z,58004.38
2022-12-01T18:01:32.336Z,58056.13
2022-12-01T18:03:59.059Z,58004.38
2022-12-01T18:06:26.693Z,58035.44
2022-12-01T18:08:53.557Z,57989.91
2022-12-01T18:11:20.681Z,57987.81
2022-12-01T18:13:48.870Z,57998.16
2022-12-01T18:16:21.091Z,58238.28
2022-12-01T18:18:48.140Z,58014.72
2022-12-01T18:21:16.646Z,58041.63
2022-12-01T18:23:51.799Z,58002.31
2022-12-01T18:26:20.358Z,58027.16
2022-12-01T18:28:46.809Z,57998.16
2022-12-01T18:31:15.564Z,58031.28
2022-12-01T18:33:43.635Z,58000.25
2022-12-01T18:36:18.445Z,57994.03
2022-12-01T18:38:47.096Z,58227.94
2022-12-01T18:41:14.078Z,58010.59
2022-12-01T18:43:40.500Z,57977.47
2022-12-01T18:46:07.320Z,58014.72
2022-12-01T18:48:34.869Z,58064.41
2022-12-01T18:51:05.424Z,58039.56
2022-12-01T18:53:32.297Z,58000.25
2022-12-01T18:56:03.503Z,57950.56
2022-12-01T18:58:30.644Z,57958.84
2022-12-01T19:00:57.756Z,57952.63
2022-12-01T19:03:24.160Z,57996.09
2022-12-01T19:05:50.756Z,58155.47
2022-12-01T19:08:17.211Z,58002.31
2022-12-01T19:10:43.667Z,57950.56
2022-12-01T19:13:10.045Z,58000.25
2022-12-01T19:15:37.012Z,57985.75
2022-12-01T19:18:03.523Z,57975.41
2022-12-01T19:20:29.921Z,57967.13
2022-12-01T19:22:56.307Z,57954.72
2022-12-01T19:25:22.686Z,58261.03
2022-12-01T19:27:51.209Z,58178.25
2022-12-01T19:30:17.602Z,57960.91
2022-12-01T19:32:44.304Z,57956.78
2022-12-01T19:35:10.827Z,57896.75
2022-12-01T19:37:37.254Z,57948.50
2022-12-01T19:40:03.791Z,57942.28
2022-12-01T19:42:30.169Z,57960.91
2022-12-01T19:44:56.654Z,58186.53
2022-12-01T19:47:23.143Z,57981.63
2022-12-01T19:49:49.697Z,57931.94
2022-12-01T19:52:16.075Z,57956.78
2022-12-01T19:54:42.649Z,57931.94
2022-12-01T19:57:09.063Z,57931.94
2022-12-01T19:59:35.561Z,57929.88
2022-12-01T20:02:02.040Z,57882.25
2022-12-01T20:04:28.508Z,57944.34
2022-12-01T20:06:54.882Z,57905.03
2022-12-01T20:09:21.278Z,57919.53
2022-12-01T20:11:47.718Z,57925.72
2022-12-01T20:14:14.352Z,57948.50
2022-12-01T20:16:40.855Z,57967.13
2022-12-01T20:19:08.057Z,57869.84
2022-12-01T20:21:39.050Z,57857.44
2022-12-01T20:24:06.452Z,57898.81
2022-12-01T20:26:36.014Z,57919.53
2022-12-01T20:29:12.767Z,57907.09
2022-12-01T20:31:39.785Z,57896.75
2022-12-01T20:34:10.761Z,57942.28
2022-12-01T20:36:37.785Z,57878.13
2022-12-01T20:39:05.710Z,57956.78
2022-12-01T20:41:32.095Z,57977.47
2022-12-01T20:44:01.273Z,57898.81
2022-12-01T20:46:32.416Z,57890.53
2022-12-01T20:48:58.822Z,57921.59
2022-12-01T20:51:34.405Z,58060.25
2022-12-01T20:54:29.288Z,57936.06
2022-12-01T20:56:56.934Z,57882.25
2022-12-01T20:59:23.573Z,58095.44
2022-12-01T21:01:50.081Z,57931.94
2022-12-01T21:04:17.195Z,57923.66
2022-12-01T21:06:43.590Z,57915.38
2022-12-01T21:09:10.563Z,57900.91
2022-12-01T21:12:02.659Z,57861.56
2022-12-01T21:14:37.379Z,57882.25
2022-12-01T21:17:29.870Z,57813.97
2022-12-01T21:20:01.543Z,57902.97
2022-12-01T21:22:28.074Z,57907.09
2022-12-01T21:25:06.494Z,57896.75
2022-12-01T21:27:32.940Z,57882.25
2022-12-01T21:29:59.582Z,57845.00
2022-12-01T21:32:31.401Z,57902.97
2022-12-01T21:35:02.339Z,57894.69
2022-12-01T21:37:28.853Z,57896.75
2022-12-01T21:39:56.456Z,57845.00
2022-12-01T21:42:26.352Z,57909.16
2022-12-01T21:44:53.101Z,57878.13
2022-12-01T21:47:24.929Z,57830.53
2022-12-01T21:49:53.900Z,57909.16
2022-12-01T21:52:22.823Z,57871.91
2022-12-01T21:54:49.804Z,57890.53
2022-12-01T21:57:29.421Z,57884.34
2022-12-01T21:59:58.613Z,57880.19
2022-12-01T22:03:00.190Z,57896.75
2022-12-01T22:05:39.351Z,57861.56
2022-12-01T22:08:11.954Z,57869.84
2022-12-01T22:10:55.468Z,57857.44
2022-12-01T22:13:25.854Z,57845.00
2022-12-01T22:15:54.097Z,57861.56
2022-12-01T22:18:27.821Z,57898.81
2022-12-01T22:20:54.205Z,57861.56
2022-12-01T22:23:21.302Z,57878.13
2022-12-01T22:25:48.209Z,57840.88
2022-12-01T22:28:18.043Z,57886.41
2022-12-01T22:30:44.548Z,57962.97
2022-12-01T22:33:16.943Z,57876.06
2022-12-01T22:35:44.994Z,57836.72
2022-12-01T22:38:22.013Z,57867.78
2022-12-01T22:40:48.319Z,57876.06
2022-12-01T22:43:17.899Z,57894.69
2022-12-01T22:45:47.539Z,57880.19
2022-12-01T22:48:20.615Z,57803.63
2022-12-01T22:50:51.601Z,57729.09
2022-12-01T22:53:21.278Z,57871.91
2022-12-01T22:55:55.271Z,57820.19
2022-12-01T22:58:38.023Z,57867.78
2022-12-01T23:01:23.104Z,57853.28
2022-12-01T23:03:49.563Z,57813.97
2022-12-01T23:06:49.526Z,57896.75
2022-12-01T23:09:17.155Z,57838.81
2022-12-01T23:11:44.404Z,57838.81
2022-12-01T23:14:16.556Z,57834.66
2022-12-01T23:16:42.996Z,58078.91
2022-12-01T23:19:09.629Z,57834.66
2022-12-01T23:21:36.357Z,57824.31
2022-12-01T23:24:03.898Z,57824.31
2022-12-01T23:26:30.281Z,57811.91
2022-12-01T23:28:58.054Z,57824.31
2022-12-01T23:31:24.934Z,57801.53
2022-12-01T23:33:51.476Z,57828.44
2022-12-01T23:36:22.745Z,57801.53
2022-12-01T23:38:53.182Z,57799.47
2022-12-01T23:41:25.601Z,57832.59
2022-12-01T23:43:53.941Z,57795.34
2022-12-01T23:46:23.197Z,57801.53
2022-12-01T23:48:58.468Z,57803.63
2022-12-01T23:51:49.913Z,57826.38
2022-12-01T23:54:19.884Z,57799.47
2022-12-01T23:56:55.115Z,57977.47
2022-12-01T23:59:21.967Z,57811.91
